Decoded Metar for KMPO (MT. POCONO in PA, USA) (IATA:MPO) | Meteo·Mobile Aviation Weather
aviador You're here:

KMPO Decoded Metar

MT. POCONO in PA, USA
Report Time2018-08-20 01:04:00
UTC Time2018-08-20 01:26:16
Flight Rules vfr VFR
Wind090° at 04 kt
W.Decomp.*RWY 13: 3.6 kt HW 1.8 kt LCW
RWY 05: 2.4 kt HW 3.2 kt RCW
W.Rank090° ranks 24
Current wind is below 090° avg. (7.2)
Visibility9999 m
Phenomena:N/A
Clouds:Scattered 029 Hf
Overcast 050 Hf
Expected CloudBase > 800 ft AGL from Temp-Dew spread
Ceiling5,000 ft
Temp18°C (ISA +7)
Dew Point16°C (88% RH)
QNH1020 hPa
Density Alt2,700 ft
Elevation1,893 ft
Report Wrong Elevation
Raw Report
KMPO 200104Z AUTO 09004KT 10SM SCT029 OVC050 18/16 A3012 RMK AO2
T01780161=

Extra information for KMPO:More info

Metar Taf Metar & Taf Last 4 Metars F.Rules Stats Wind Profile Meteogram Temp Stats Airport Information Weather charts Add Link Nearby VenuesMetar ALERT Operation Metar Decoded Social comments

AIRNAV info for KMPO